Time;durP1;ratioP1;P1;durP2;ratioP2;P2;SDS_P1;SDS_P2;PMS_P1;PMS_P2;Temp;Humidity;BMP_temperature;BMP_pressure;BME280_temperature;BME280_humidity;BME280_pressure;Samples;Min_cycle;Max_cycle;Signal;HPM_P1;HPM_P2
2023/08/02 00:02:15;;;;;;;1.90;0.10;;;;;;;15.17;100.00;97484.59;5010020;28;20044;-80
2023/08/02 00:04:41;;;;;;;0.32;0.10;;;;;;;15.14;100.00;97479.75;5030770;28;20033;-81
2023/08/02 00:07:07;;;;;;;0.82;0.40;;;;;;;15.09;100.00;97469.88;5040879;28;20040;-81
2023/08/02 00:09:33;;;;;;;0.35;0.10;;;;;;;15.10;100.00;97463.47;5040852;28;20041;-81
2023/08/02 00:12:00;;;;;;;12.15;0.40;;;;;;;15.11;100.00;97466.97;5043670;28;20029;-81
2023/08/02 00:14:26;;;;;;;1.95;0.10;;;;;;;15.13;100.00;97463.00;5024974;28;20051;-82
2023/08/02 00:16:52;;;;;;;1.45;0.10;;;;;;;15.15;100.00;97459.25;5028470;28;20045;-81
2023/08/02 00:19:17;;;;;;;0.57;0.10;;;;;;;15.12;100.00;97457.91;5019594;28;20508;-82
2023/08/02 00:21:43;;;;;;;1.00;0.10;;;;;;;15.13;100.00;97454.19;5021324;28;20040;-81
2023/08/02 00:24:10;;;;;;;0.15;0.10;;;;;;;15.17;100.00;97450.00;5020533;28;20128;-82
2023/08/02 00:26:36;;;;;;;3.38;1.40;;;;;;;15.18;100.00;97448.94;5014573;28;20537;-81
2023/08/02 00:29:02;;;;;;;4.10;1.30;;;;;;;15.18;100.00;97451.59;5001738;28;20048;-82
2023/08/02 00:31:28;;;;;;;0.73;0.47;;;;;;;15.23;100.00;97448.19;4994679;28;20033;-82
2023/08/02 00:33:54;;;;;;;4.80;0.73;;;;;;;15.30;100.00;97445.34;4955383;28;20056;-81
2023/08/02 00:36:19;;;;;;;0.20;0.20;;;;;;;15.32;100.00;97445.91;5016910;28;20138;-81
2023/08/02 00:38:45;;;;;;;0.95;0.10;;;;;;;15.32;100.00;97436.06;5028082;28;20044;-82
2023/08/02 00:41:11;;;;;;;0.73;0.20;;;;;;;15.31;100.00;97436.31;5022370;28;20033;-81
2023/08/02 00:43:41;;;;;;;0.30;0.10;;;;;;;15.28;100.00;97431.47;5020407;28;20048;-81
2023/08/02 00:46:09;;;;;;;4.28;0.17;;;;;;;15.25;100.00;97432.78;4993461;28;20034;-81
2023/08/02 00:48:35;;;;;;;1.33;0.20;;;;;;;15.25;100.00;97420.31;5024440;28;20388;-82
2023/08/02 00:51:05;;;;;;;0.30;0.10;;;;;;;15.28;100.00;97420.84;5006500;28;20178;-81
2023/08/02 00:53:31;;;;;;;0.73;0.00;;;;;;;15.29;100.00;97417.13;5011560;28;20029;-81
2023/08/02 00:55:57;;;;;;;2.30;0.13;;;;;;;15.32;100.00;97411.31;5010422;28;20060;-81
2023/08/02 00:58:24;;;;;;;2.38;0.20;;;;;;;15.34;100.00;97398.53;5018276;28;20744;-81
2023/08/02 01:00:49;;;;;;;2.28;0.15;;;;;;;15.37;100.00;97396.19;5025104;28;20108;-81
2023/08/02 01:03:15;;;;;;;1.75;0.20;;;;;;;15.37;100.00;97398.84;5028587;28;20026;-81
2023/08/02 01:05:55;;;;;;;1.25;0.20;;;;;;;15.38;100.00;97392.47;5003904;28;20532;-81
2023/08/02 01:08:29;;;;;;;0.40;0.10;;;;;;;15.34;100.00;97395.88;5008510;28;20481;-81
2023/08/02 01:11:14;;;;;;;2.72;0.20;;;;;;;15.31;100.00;97388.41;5011534;28;20079;-80
2023/08/02 01:13:45;;;;;;;2.03;0.35;;;;;;;15.28;100.00;97386.25;5012349;28;20171;-80
2023/08/02 01:16:11;;;;;;;0.30;0.10;;;;;;;15.24;100.00;97378.75;5010541;28;20045;-81
2023/08/02 01:18:37;;;;;;;3.83;0.30;;;;;;;15.27;100.00;97382.00;5023462;28;20060;-79
2023/08/02 01:21:03;;;;;;;0.65;0.17;;;;;;;15.23;100.00;97377.16;5005180;28;20036;-79
2023/08/02 01:23:30;;;;;;;1.80;0.10;;;;;;;15.18;100.00;97368.34;5004439;28;20086;-80
2023/08/02 01:25:59;;;;;;;1.85;0.30;;;;;;;15.17;100.00;97361.41;5012405;28;20945;-80
2023/08/02 01:28:27;;;;;;;0.57;0.08;;;;;;;15.19;100.00;97356.63;5032949;28;20034;-80
2023/08/02 01:30:54;;;;;;;2.55;0.15;;;;;;;15.26;100.00;97362.56;5009992;28;20034;-79
2023/08/02 01:33:22;;;;;;;0.20;0.20;;;;;;;15.29;100.00;97358.59;5023652;28;20030;-80
2023/08/02 01:35:49;;;;;;;0.10;0.10;;;;;;;15.31;100.00;97351.16;4997240;28;20156;-80
2023/08/02 01:38:15;;;;;;;0.73;0.15;;;;;;;15.30;100.00;97346.91;5024573;28;20037;-80
2023/08/02 01:40:40;;;;;;;0.35;0.10;;;;;;;15.31;100.00;97345.84;5019407;28;20041;-80
2023/08/02 01:43:06;;;;;;;1.55;0.10;;;;;;;15.33;100.00;97333.09;5007092;28;20049;-80
2023/08/02 01:45:32;;;;;;;0.98;0.20;;;;;;;15.36;100.00;97335.25;4988831;28;20048;-80
2023/08/02 01:47:58;;;;;;;0.10;0.10;;;;;;;15.38;100.00;97327.81;5013304;28;20021;-80
2023/08/02 01:50:24;;;;;;;0.75;0.10;;;;;;;15.41;100.00;97318.50;5019393;28;20659;-81
2023/08/02 01:52:49;;;;;;;0.70;0.38;;;;;;;15.42;100.00;97309.47;5002605;28;20116;-81
2023/08/02 01:55:17;;;;;;;0.43;0.13;;;;;;;15.48;100.00;97308.47;5013877;28;20034;-81
2023/08/02 01:57:44;;;;;;;1.77;0.25;;;;;;;15.49;100.00;97310.88;5039265;28;20660;-80
2023/08/02 02:00:12;;;;;;;3.25;0.20;;;;;;;15.51;100.00;97307.97;5009600;28;20029;-80
2023/08/02 02:02:42;;;;;;;0.10;0.10;;;;;;;15.48;100.00;97319.13;5008193;28;20534;-80
2023/08/02 02:05:08;;;;;;;10.63;4.63;;;;;;;15.46;100.00;97316.72;5026262;28;20030;-81
2023/08/02 02:07:34;;;;;;;61.88;27.52;;;;;;;15.44;100.00;97305.50;5012042;28;20119;-81
2023/08/02 02:10:00;;;;;;;34.05;17.38;;;;;;;15.45;100.00;97303.66;5015302;28;20037;-81
2023/08/02 02:12:27;;;;;;;13.20;6.40;;;;;;;15.46;100.00;97305.25;5014263;28;20037;-81
2023/08/02 02:14:52;;;;;;;4.25;1.02;;;;;;;15.46;100.00;97313.25;5031230;28;20074;-81
2023/08/02 02:17:18;;;;;;;7.78;2.88;;;;;;;15.37;100.00;97312.88;5042473;28;20387;-81
2023/08/02 02:19:44;;;;;;;2.85;1.40;;;;;;;15.30;100.00;97312.31;4997621;28;20472;-81
2023/08/02 02:22:10;;;;;;;5.63;1.30;;;;;;;15.21;100.00;97304.78;5014084;28;20037;-81
2023/08/02 02:24:36;;;;;;;1.05;0.57;;;;;;;15.10;100.00;97303.88;5016980;28;20121;-79
2023/08/02 02:27:02;;;;;;;3.70;0.90;;;;;;;15.04;100.00;97291.59;5049045;28;20048;-79
2023/08/02 02:29:27;;;;;;;4.03;0.10;;;;;;;15.04;100.00;97288.13;5042713;28;20036;-81
2023/08/02 02:31:53;;;;;;;3.83;0.60;;;;;;;14.98;100.00;97281.97;5013585;28;20050;-81
2023/08/02 02:34:19;;;;;;;2.72;0.60;;;;;;;14.94;100.00;97272.91;5036774;28;20021;-81
2023/08/02 02:36:46;;;;;;;5.53;1.60;;;;;;;14.91;100.00;97276.06;5010389;28;20605;-82
2023/08/02 02:39:12;;;;;;;2.60;0.50;;;;;;;14.86;100.00;97260.81;5033195;28;20450;-80
2023/08/02 02:41:37;;;;;;;14.43;4.15;;;;;;;14.84;100.00;97260.28;5013888;28;20128;-80
2023/08/02 02:44:03;;;;;;;6.88;2.00;;;;;;;14.81;100.00;97266.91;5027818;28;20498;-81
2023/08/02 02:46:29;;;;;;;3.47;0.98;;;;;;;14.80;100.00;97267.16;5016589;28;20162;-81
2023/08/02 02:48:55;;;;;;;7.47;3.00;;;;;;;14.80;100.00;97265.31;5031855;28;20036;-81
2023/08/02 02:51:20;;;;;;;6.88;2.00;;;;;;;14.81;100.00;97266.13;5014765;28;20083;-81
2023/08/02 02:53:46;;;;;;;10.48;0.73;;;;;;;14.81;100.00;97269.56;5012628;28;20117;-81
2023/08/02 02:56:12;;;;;;;3.20;1.10;;;;;;;14.83;100.00;97267.47;5032887;28;20044;-81
2023/08/02 02:58:38;;;;;;;2.28;0.50;;;;;;;14.85;100.00;97268.03;5016376;28;20033;-81
2023/08/02 03:01:03;;;;;;;5.13;1.15;;;;;;;14.86;100.00;97272.28;5015370;28;20032;-81
2023/08/02 03:03:29;;;;;;;4.15;0.73;;;;;;;14.88;100.00;97269.38;5024325;28;20041;-81
2023/08/02 03:05:55;;;;;;;6.40;0.77;;;;;;;14.89;100.00;97263.00;5035660;28;20518;-81
2023/08/02 03:08:20;;;;;;;6.93;0.90;;;;;;;14.92;100.00;97264.34;5000232;28;20026;-81
2023/08/02 03:10:46;;;;;;;8.75;0.85;;;;;;;14.92;100.00;97265.16;5021553;28;20044;-81
2023/08/02 03:13:12;;;;;;;5.63;1.13;;;;;;;14.93;100.00;97264.09;5015289;28;20040;-81
2023/08/02 03:15:38;;;;;;;10.05;1.02;;;;;;;14.94;100.00;97265.69;5046318;28;20489;-81
2023/08/02 03:18:03;;;;;;;6.97;1.17;;;;;;;14.96;100.00;97262.78;5034134;28;20037;-81
2023/08/02 03:20:29;;;;;;;5.78;1.15;;;;;;;14.99;100.00;97259.63;5025427;28;20101;-81
2023/08/02 03:22:55;;;;;;;9.57;1.40;;;;;;;15.03;100.00;97259.94;5046777;28;20060;-81
2023/08/02 03:25:20;;;;;;;9.27;1.77;;;;;;;15.04;100.00;97261.53;5043507;28;20079;-81
2023/08/02 03:27:46;;;;;;;6.20;1.45;;;;;;;15.03;100.00;97255.41;5032622;28;20556;-81
2023/08/02 03:30:12;;;;;;;6.85;1.25;;;;;;;15.05;100.00;97255.94;5041851;28;20038;-81
2023/08/02 03:32:37;;;;;;;8.18;1.25;;;;;;;15.05;100.00;97249.84;5047886;28;20033;-80
2023/08/02 03:35:04;;;;;;;6.38;1.10;;;;;;;15.09;100.00;97253.59;5052995;28;20044;-80
2023/08/02 03:37:30;;;;;;;10.15;1.58;;;;;;;15.08;100.00;97247.47;5049145;28;20032;-80
2023/08/02 03:39:55;;;;;;;8.32;1.20;;;;;;;15.11;100.00;97246.97;5030408;28;20017;-82
2023/08/02 03:42:21;;;;;;;10.95;1.25;;;;;;;15.11;100.00;97238.97;5031400;28;20032;-81
2023/08/02 03:44:47;;;;;;;8.88;1.25;;;;;;;15.10;100.00;97242.72;5037374;28;20044;-81
2023/08/02 03:47:13;;;;;;;7.18;1.33;;;;;;;15.10;100.00;97240.03;5036632;28;20070;-81
2023/08/02 03:49:39;;;;;;;6.38;1.20;;;;;;;15.13;100.00;97238.72;5030342;28;20065;-81
2023/08/02 03:52:05;;;;;;;12.73;1.50;;;;;;;15.13;100.00;97231.56;5010548;28;21132;-81
2023/08/02 03:54:31;;;;;;;8.57;1.52;;;;;;;15.14;100.00;97237.69;5045206;28;20454;-81
2023/08/02 03:56:57;;;;;;;11.13;1.75;;;;;;;15.12;100.00;97235.28;5013609;28;20029;-81
2023/08/02 03:59:23;;;;;;;13.45;1.70;;;;;;;15.12;100.00;97240.59;5028959;28;20029;-81
2023/08/02 04:01:48;;;;;;;8.88;1.65;;;;;;;15.09;100.00;97232.31;5014946;28;20524;-81
2023/08/02 04:04:14;;;;;;;9.00;1.58;;;;;;;15.09;100.00;97234.97;5012842;28;20029;-81
2023/08/02 04:06:40;;;;;;;14.48;1.95;;;;;;;15.08;100.00;97228.84;5032298;28;20079;-81
2023/08/02 04:09:06;;;;;;;11.48;1.88;;;;;;;15.08;100.00;97230.72;5011344;28;20472;-81
2023/08/02 04:11:32;;;;;;;11.18;1.40;;;;;;;15.07;100.00;97229.09;5024286;28;20025;-81
2023/08/02 04:13:57;;;;;;;10.45;2.08;;;;;;;15.09;100.00;97229.66;5047066;28;20025;-80
2023/08/02 04:16:23;;;;;;;10.80;1.90;;;;;;;15.09;100.00;97230.47;5032056;28;20498;-79
2023/08/02 04:18:49;;;;;;;9.73;2.08;;;;;;;15.12;100.00;97231.81;5051582;28;20041;-80
2023/08/02 04:21:19;;;;;;;16.08;2.42;;;;;;;15.17;100.00;97225.72;5029918;28;20117;-80
2023/08/02 04:23:47;;;;;;;13.18;1.85;;;;;;;15.17;100.00;97231.84;5025925;28;20036;-81
2023/08/02 04:26:13;;;;;;;13.68;1.60;;;;;;;15.17;100.00;97231.84;5031843;28;20419;-81
2023/08/02 04:28:39;;;;;;;13.40;2.22;;;;;;;15.16;100.00;97234.78;5014294;28;20047;-81
2023/08/02 04:31:05;;;;;;;13.77;1.40;;;;;;;15.15;100.00;97235.81;5030482;28;20052;-81
2023/08/02 04:33:31;;;;;;;13.45;1.60;;;;;;;15.17;100.00;97239.84;5031674;28;20055;-81
2023/08/02 04:36:00;;;;;;;18.23;1.95;;;;;;;15.20;100.00;97236.66;5031922;28;20070;-81
2023/08/02 04:38:26;;;;;;;9.20;1.35;;;;;;;15.18;100.00;97240.66;5026193;28;20051;-81
2023/08/02 04:40:53;;;;;;;14.07;1.90;;;;;;;15.16;100.00;97232.13;5028867;28;20033;-81
2023/08/02 04:43:18;;;;;;;13.45;1.80;;;;;;;15.15;100.00;97241.13;5028095;28;20021;-81
2023/08/02 04:45:44;;;;;;;9.77;1.95;;;;;;;15.15;100.00;97236.63;5020300;28;20120;-81
2023/08/02 04:48:10;;;;;;;9.95;1.52;;;;;;;15.15;100.00;97235.81;5010475;28;20032;-81
2023/08/02 04:50:36;;;;;;;9.25;1.30;;;;;;;15.16;100.00;97240.09;5013965;28;20045;-81
2023/08/02 04:53:01;;;;;;;10.82;1.27;;;;;;;15.15;100.00;97241.94;5027574;28;20084;-81
2023/08/02 04:55:27;;;;;;;11.73;1.55;;;;;;;15.15;100.00;97239.28;5015910;28;20029;-81
2023/08/02 04:57:53;;;;;;;10.90;1.52;;;;;;;15.13;100.00;97236.06;5031135;28;20037;-81
2023/08/02 05:00:19;;;;;;;7.80;1.38;;;;;;;15.09;100.00;97241.09;5044360;28;20466;-81
2023/08/02 05:02:45;;;;;;;12.05;1.55;;;;;;;15.07;100.00;97239.75;5012475;28;20084;-81
2023/08/02 05:05:11;;;;;;;14.50;1.80;;;;;;;15.06;100.00;97249.59;5013359;28;20080;-81
2023/08/02 05:07:38;;;;;;;11.10;1.77;;;;;;;15.08;100.00;97246.69;5009184;28;20033;-81
2023/08/02 05:10:05;;;;;;;12.45;2.08;;;;;;;15.08;100.00;97242.16;5028733;28;20514;-81
2023/08/02 05:12:37;;;;;;;17.90;2.15;;;;;;;15.08;100.00;97246.69;5015771;28;21332;-81
2023/08/02 05:15:03;;;;;;;9.73;1.40;;;;;;;15.02;100.00;97239.72;5031695;28;20039;-81
2023/08/02 05:17:30;;;;;;;8.48;1.50;;;;;;;15.03;100.00;97243.97;5029517;28;20073;-81
2023/08/02 05:19:56;;;;;;;16.63;1.70;;;;;;;15.03;100.00;97244.78;5038931;28;20593;-81
2023/08/02 05:22:22;;;;;;;11.23;1.85;;;;;;;15.02;100.00;97237.06;5027505;28;20037;-81
2023/08/02 05:24:52;;;;;;;12.02;1.48;;;;;;;15.03;100.00;97234.16;5047875;28;20033;-81
2023/08/02 05:27:18;;;;;;;11.85;2.22;;;;;;;15.00;100.00;97229.34;5007746;28;20100;-81
2023/08/02 05:29:44;;;;;;;8.80;1.67;;;;;;;14.97;100.00;97230.63;5014346;28;20567;-82
2023/08/02 05:32:10;;;;;;;11.65;1.92;;;;;;;14.93;100.00;97234.03;5058510;28;20026;-81
2023/08/02 05:34:35;;;;;;;13.95;1.85;;;;;;;14.92;100.00;97241.22;5047958;28;20025;-81
2023/08/02 05:37:01;;;;;;;9.13;1.30;;;;;;;14.95;100.00;97238.06;5010363;28;20080;-80
2023/08/02 05:39:27;;;;;;;9.30;1.65;;;;;;;14.97;100.00;97233.28;5032881;28;20036;-81
2023/08/02 05:41:53;;;;;;;10.40;1.88;;;;;;;14.99;100.00;97236.50;5040477;28;20462;-81
2023/08/02 05:44:19;;;;;;;12.73;1.55;;;;;;;15.02;100.00;97229.84;5019971;28;20517;-81
2023/08/02 05:46:44;;;;;;;11.93;1.58;;;;;;;15.00;100.00;97230.13;5045493;28;20360;-81
2023/08/02 05:49:10;;;;;;;8.48;1.20;;;;;;;14.99;100.00;97230.38;5026876;28;20032;-81
2023/08/02 05:51:36;;;;;;;8.73;1.90;;;;;;;14.95;100.00;97234.59;4995621;28;20028;-81
2023/08/02 05:54:01;;;;;;;5.05;1.48;;;;;;;14.91;100.00;97226.31;4994545;28;20040;-81
2023/08/02 05:56:27;;;;;;;8.93;1.52;;;;;;;14.88;100.00;97226.81;5003979;28;20375;-80
2023/08/02 05:58:53;;;;;;;6.47;1.20;;;;;;;14.87;100.00;97235.88;5026556;28;20044;-80
2023/08/02 06:01:19;;;;;;;6.63;1.40;;;;;;;14.85;100.00;97229.97;5028407;28;20083;-80
2023/08/02 06:03:44;;;;;;;8.05;1.08;;;;;;;14.84;100.00;97237.16;5028324;28;20371;-80
2023/08/02 06:06:10;;;;;;;5.85;1.23;;;;;;;14.83;100.00;97237.41;5029671;28;20459;-80
2023/08/02 06:08:37;;;;;;;6.40;0.98;;;;;;;14.84;100.00;97247.00;5014192;28;20037;-80
2023/08/02 06:11:03;;;;;;;5.05;1.10;;;;;;;14.83;100.00;97248.03;5039673;28;20428;-80
2023/08/02 06:13:29;;;;;;;6.15;0.90;;;;;;;14.82;100.00;97244.59;5029369;28;20028;-81
2023/08/02 06:15:55;;;;;;;5.20;1.27;;;;;;;14.78;100.00;97247.97;5041368;28;20497;-80
2023/08/02 06:18:21;;;;;;;10.45;1.13;;;;;;;14.76;100.00;97245.56;5013938;28;20049;-80
2023/08/02 06:20:46;;;;;;;5.30;1.13;;;;;;;14.74;100.00;97242.34;5019103;28;20032;-80
2023/08/02 06:23:12;;;;;;;3.83;0.80;;;;;;;14.78;100.00;97247.97;5026005;28;20033;-80
2023/08/02 06:25:38;;;;;;;4.10;0.68;;;;;;;14.79;100.00;97246.91;5010340;28;20053;-80
2023/08/02 06:28:04;;;;;;;3.20;0.85;;;;;;;14.81;100.00;97250.94;5042879;28;20064;-81
2023/08/02 06:30:31;;;;;;;4.57;0.70;;;;;;;14.82;100.00;97249.09;5025896;28;20116;-81
2023/08/02 06:32:56;;;;;;;3.83;0.90;;;;;;;14.78;100.00;97258.63;5029488;28;20164;-81
2023/08/02 06:35:22;;;;;;;5.90;0.80;;;;;;;14.79;100.00;97269.03;5025719;28;20049;-81
2023/08/02 06:37:48;;;;;;;3.47;0.75;;;;;;;14.81;100.00;97261.59;5032402;28;20030;-81
2023/08/02 06:40:13;;;;;;;3.60;0.95;;;;;;;14.81;100.00;97271.44;5021086;28;20033;-81
2023/08/02 06:42:39;;;;;;;2.88;0.60;;;;;;;14.84;100.00;97273.59;5029220;28;20061;-81
2023/08/02 06:45:06;;;;;;;3.38;0.63;;;;;;;14.87;100.00;97267.78;5028769;28;20040;-81
2023/08/02 06:47:32;;;;;;;3.88;0.95;;;;;;;14.84;100.00;97269.06;4994114;28;20029;-81
2023/08/02 06:49:57;;;;;;;7.18;0.60;;;;;;;14.89;100.00;97268.34;5023641;28;20037;-80
2023/08/02 06:52:24;;;;;;;6.68;0.82;;;;;;;14.87;100.00;97279.19;5014129;28;20656;-81
2023/08/02 06:54:53;;;;;;;4.15;0.70;;;;;;;14.88;100.00;97280.81;4997335;28;20064;-81
2023/08/02 06:57:22;;;;;;;6.53;0.63;;;;;;;14.90;100.00;97277.91;4999901;28;20029;-81
2023/08/02 06:59:53;;;;;;;3.85;0.70;;;;;;;14.92;100.00;97289.09;5028393;28;20029;-81
2023/08/02 07:02:18;;;;;;;4.10;0.52;;;;;;;14.86;100.00;97290.88;5029006;28;20059;-81
2023/08/02 07:04:44;;;;;;;4.55;0.52;;;;;;;14.80;100.00;97286.56;5011921;28;20052;-81
2023/08/02 07:07:10;;;;;;;4.53;0.40;;;;;;;14.80;100.00;97299.88;5037303;28;20029;-81
2023/08/02 07:09:35;;;;;;;4.03;0.60;;;;;;;14.74;100.00;97303.50;5025257;28;20037;-81
2023/08/02 07:12:01;;;;;;;1.65;0.95;;;;;;;14.58;100.00;97308.66;5023408;28;20037;-81
2023/08/02 07:14:27;;;;;;;0.60;0.47;;;;;;;14.48;100.00;97324.47;4998692;28;20087;-81
2023/08/02 07:16:53;;;;;;;2.13;0.80;;;;;;;14.39;100.00;97316.94;5016769;28;20021;-81
2023/08/02 07:19:18;;;;;;;2.05;0.65;;;;;;;14.39;100.00;97316.13;5011953;28;20049;-81
2023/08/02 07:21:44;;;;;;;1.33;0.55;;;;;;;14.37;100.00;97334.16;5023322;28;20513;-81
2023/08/02 07:24:10;;;;;;;1.73;0.70;;;;;;;14.36;100.00;97336.03;5020212;28;20022;-81
2023/08/02 07:26:36;;;;;;;1.33;0.50;;;;;;;14.37;100.00;97337.63;5027655;28;20068;-81
2023/08/02 07:29:02;;;;;;;0.85;0.60;;;;;;;14.45;100.00;97346.22;5024631;28;20026;-81
2023/08/02 07:31:27;;;;;;;1.27;0.40;;;;;;;14.48;100.00;97345.72;5028808;28;20030;-81
2023/08/02 07:33:53;;;;;;;0.20;0.20;;;;;;;14.49;100.00;97356.09;5042501;28;20033;-81
2023/08/02 07:36:20;;;;;;;0.73;0.25;;;;;;;14.53;100.00;97359.06;5017312;28;20430;-81
2023/08/02 07:38:46;;;;;;;0.43;0.10;;;;;;;14.55;100.00;97356.97;5026335;28;20034;-80
2023/08/02 07:41:12;;;;;;;0.08;0.08;;;;;;;14.54;100.00;97365.19;5029879;28;20037;-81
2023/08/02 07:43:38;;;;;;;0.08;0.00;;;;;;;14.51;100.00;97369.94;5057308;28;20044;-81
2023/08/02 07:46:04;;;;;;;0.20;0.03;;;;;;;14.52;100.00;97363.56;5014966;28;20126;-81
2023/08/02 07:48:30;;;;;;;3.10;0.10;;;;;;;14.56;100.00;97371.06;5027478;28;20030;-81
2023/08/02 07:50:56;;;;;;;0.10;0.10;;;;;;;14.54;100.00;97367.84;5028076;28;20038;-81
2023/08/02 07:53:22;;;;;;;0.00;0.00;;;;;;;14.55;100.00;97367.63;5028484;28;20056;-81
2023/08/02 07:55:49;;;;;;;0.40;0.10;;;;;;;14.61;100.00;97373.78;5024827;28;20041;-81
2023/08/02 07:58:16;;;;;;;0.00;0.00;;;;;;;14.69;100.00;97375.22;5021283;28;20370;-81
2023/08/02 08:00:42;;;;;;;0.22;0.10;;;;;;;14.75;100.00;97376.88;5014783;28;20147;-81
2023/08/02 08:03:07;;;;;;;0.47;0.00;;;;;;;14.74;100.00;97381.41;5004391;28;20430;-81
2023/08/02 08:05:33;;;;;;;0.43;0.00;;;;;;;14.78;100.00;97389.66;5017338;28;20037;-81
2023/08/02 08:07:59;;;;;;;0.00;0.00;;;;;;;14.77;100.00;97393.38;5027568;28;20054;-81
2023/08/02 08:10:27;;;;;;;0.00;0.00;;;;;;;14.69;100.00;97394.63;5030273;28;20033;-81
2023/08/02 08:12:53;;;;;;;0.10;0.08;;;;;;;14.47;100.00;97406.06;4987928;28;20109;-79
2023/08/02 08:15:19;;;;;;;0.05;0.05;;;;;;;14.36;100.00;97404.28;5016613;28;20041;-79
2023/08/02 08:17:44;;;;;;;0.40;0.05;;;;;;;14.33;100.00;97415.41;5021991;28;20032;-79
2023/08/02 08:20:11;;;;;;;0.10;0.10;;;;;;;14.38;100.00;97413.63;5041108;28;20031;-79
2023/08/02 08:22:37;;;;;;;0.10;0.10;;;;;;;14.41;100.00;97420.31;5032694;28;20410;-81
2023/08/02 08:25:02;;;;;;;0.57;0.20;;;;;;;14.41;100.00;97419.50;5022038;28;20033;-81
2023/08/02 08:27:28;;;;;;;0.20;0.10;;;;;;;14.39;100.00;97435.69;4987817;28;20463;-81
2023/08/02 08:29:54;;;;;;;0.00;0.00;;;;;;;14.43;100.00;97430.69;4992867;28;20513;-81
2023/08/02 08:32:23;;;;;;;0.10;0.10;;;;;;;14.35;100.00;97438.03;5024693;28;20442;-81
2023/08/02 08:34:48;;;;;;;0.10;0.10;;;;;;;14.31;100.00;97449.38;5022617;28;20033;-81
2023/08/02 08:37:14;;;;;;;1.00;0.13;;;;;;;14.28;100.00;97453.34;5039013;28;20021;-82
2023/08/02 08:39:40;;;;;;;0.20;0.10;;;;;;;14.23;100.00;97459.38;5038311;28;20033;-82
2023/08/02 08:42:07;;;;;;;0.00;0.00;;;;;;;14.22;100.00;97465.72;5012819;28;20394;-81
2023/08/02 08:44:37;;;;;;;0.40;0.20;;;;;;;14.25;100.00;97475.06;5011935;28;20441;-82
2023/08/02 08:47:06;;;;;;;0.70;0.20;;;;;;;14.22;100.00;97463.06;5004505;28;20033;-81
2023/08/02 08:49:31;;;;;;;0.10;0.00;;;;;;;14.01;100.00;97478.66;5039233;28;20037;-82
2023/08/02 08:52:02;;;;;;;1.67;0.20;;;;;;;13.93;100.00;97486.25;5041427;28;20041;-82
2023/08/02 08:54:29;;;;;;;0.60;0.20;;;;;;;13.94;100.00;97490.50;5030460;28;20040;-82
2023/08/02 08:56:56;;;;;;;1.90;0.13;;;;;;;13.97;100.00;97495.31;5014978;28;20041;-82
2023/08/02 08:59:22;;;;;;;0.68;0.10;;;;;;;14.00;100.00;97497.50;5024223;28;20055;-82
2023/08/02 09:01:49;;;;;;;0.47;0.22;;;;;;;14.01;100.00;97515.06;5029181;28;20501;-82
2023/08/02 09:04:15;;;;;;;0.22;0.10;;;;;;;14.00;100.00;97500.16;5010869;28;20040;-82
2023/08/02 09:06:41;;;;;;;0.20;0.17;;;;;;;14.02;100.00;97514.00;5040129;28;20102;-82
2023/08/02 09:09:07;;;;;;;1.35;0.08;;;;;;;14.09;100.00;97519.19;5041372;28;20087;-82
2023/08/02 09:11:33;;;;;;;0.08;0.08;;;;;;;14.10;100.00;97524.25;5012452;28;20222;-82
2023/08/02 09:14:09;;;;;;;0.45;0.08;;;;;;;14.09;100.00;97537.75;5010078;28;20067;-82
2023/08/02 09:16:35;;;;;;;0.30;0.10;;;;;;;14.05;100.00;97541.97;4980842;28;20075;-82
2023/08/02 09:19:01;;;;;;;0.00;0.00;;;;;;;14.05;100.00;97526.03;5024806;28;20049;-82
2023/08/02 09:21:27;;;;;;;0.13;0.08;;;;;;;14.00;100.00;97540.00;5025117;28;20036;-82
2023/08/02 09:23:58;;;;;;;0.28;0.10;;;;;;;13.99;100.00;97549.00;5001464;28;20484;-82
2023/08/02 09:26:24;;;;;;;0.63;0.10;;;;;;;13.99;100.00;97549.81;4981832;28;20040;-83
2023/08/02 09:29:07;;;;;;;1.17;0.35;;;;;;;14.03;100.00;97558.09;5039474;28;20029;-82
2023/08/02 09:31:36;;;;;;;0.50;0.20;;;;;;;14.06;100.00;97559.50;5017183;28;20049;-81
2023/08/02 09:34:03;;;;;;;1.45;0.13;;;;;;;14.03;100.00;97566.06;5008033;28;20029;-81
2023/08/02 09:36:33;;;;;;;2.30;0.13;;;;;;;14.02;100.00;97567.94;5034193;28;20392;-82
2023/08/02 09:39:19;;;;;;;0.15;0.15;;;;;;;13.99;100.00;97565.75;5012936;28;20064;-81
2023/08/02 09:41:44;;;;;;;0.70;0.20;;;;;;;13.99;100.00;97579.03;5061063;28;20029;-81
2023/08/02 09:44:20;;;;;;;0.10;0.10;;;;;;;13.99;100.00;97584.34;5010413;28;20020;-80
2023/08/02 09:46:46;;;;;;;0.63;0.20;;;;;;;13.97;100.00;97586.41;5035215;28;20529;-81
2023/08/02 09:49:17;;;;;;;0.10;0.10;;;;;;;14.05;100.00;97600.38;5027058;28;20033;-81
2023/08/02 09:51:44;;;;;;;0.30;0.20;;;;;;;14.10;100.00;97593.31;5058015;28;20394;-81
2023/08/02 09:54:12;;;;;;;0.10;0.10;;;;;;;14.16;100.00;97599.50;5010054;28;20044;-81
2023/08/02 09:56:39;;;;;;;1.40;0.35;;;;;;;14.16;100.00;97612.00;5030803;28;20041;-81
2023/08/02 09:59:06;;;;;;;0.10;0.10;;;;;;;14.24;100.00;97609.75;5015119;28;20030;-81
2023/08/02 10:01:34;;;;;;;1.33;0.20;;;;;;;14.32;100.00;97631.66;5029433;28;20026;-81
2023/08/02 10:04:06;;;;;;;0.00;0.00;;;;;;;14.29;100.00;97629.47;5046663;28;20066;-82
2023/08/02 10:06:38;;;;;;;0.20;0.10;;;;;;;14.36;100.00;97633.63;5035901;28;20025;-81
2023/08/02 10:09:07;;;;;;;0.45;0.13;;;;;;;14.39;100.00;97625.16;4994192;28;20049;-81
2023/08/02 10:11:43;;;;;;;1.10;0.20;;;;;;;14.47;100.00;97633.78;5009104;28;20107;-82
2023/08/02 10:14:09;;;;;;;;;;;;;;;14.41;100.00;97637.41;5041120;28;20037;-81
2023/08/02 10:16:37;;;;;;;0.85;0.30;;;;;;;14.42;100.00;97644.31;5023273;28;19971;-81
2023/08/02 10:19:03;;;;;;;1.85;0.57;;;;;;;14.42;100.00;97653.09;5025683;28;20052;-80
2023/08/02 10:21:33;;;;;;;1.00;0.30;;;;;;;14.51;100.00;97654.31;5017844;28;20040;-81
2023/08/02 10:24:01;;;;;;;0.63;0.15;;;;;;;14.60;100.00;97645.97;5001192;28;20034;-81
2023/08/02 10:26:29;;;;;;;0.10;0.10;;;;;;;14.62;100.00;97655.31;5036551;28;20033;-82
2023/08/02 10:28:59;;;;;;;0.40;0.13;;;;;;;14.73;100.00;97661.59;5030309;28;20054;-80
2023/08/02 10:31:26;;;;;;;0.13;0.13;;;;;;;14.84;100.00;97665.25;5014835;28;20120;-80
2023/08/02 10:33:51;;;;;;;0.15;0.15;;;;;;;14.89;100.00;97651.25;5025827;28;20491;-81
2023/08/02 10:36:17;;;;;;;2.58;0.20;;;;;;;15.07;100.00;97658.16;5037071;28;20040;-82
2023/08/02 10:38:43;;;;;;;0.10;0.10;;;;;;;15.29;100.00;97672.59;5000447;28;20072;-82
2023/08/02 10:41:11;;;;;;;0.45;0.10;;;;;;;15.32;100.00;97664.91;4996693;28;20034;-82
2023/08/02 10:43:56;;;;;;;0.30;0.20;;;;;;;15.37;100.00;97662.31;5034314;28;20033;-82
2023/08/02 10:46:28;;;;;;;0.55;0.20;;;;;;;15.43;100.00;97671.16;5028622;28;20033;-82
2023/08/02 10:49:16;;;;;;;7.30;0.50;;;;;;;15.42;100.00;97682.06;5049637;28;20041;-82
2023/08/02 10:51:43;;;;;;;1.00;0.40;;;;;;;15.38;100.00;97685.22;5035097;28;20056;-82
2023/08/02 10:54:13;;;;;;;0.63;0.32;;;;;;;15.44;100.00;97702.09;5025035;28;20083;-82
2023/08/02 10:56:51;;;;;;;0.85;0.40;;;;;;;15.41;100.00;97707.06;5009701;28;20507;-81
2023/08/02 10:59:40;;;;;;;0.93;0.40;;;;;;;15.40;100.00;97703.59;5019530;28;20087;-82
2023/08/02 11:02:09;;;;;;;2.85;0.60;;;;;;;15.41;100.00;97710.56;5007368;28;20738;-82
2023/08/02 11:04:37;;;;;;;3.80;0.43;;;;;;;15.37;100.00;97715.53;5020726;28;20124;-82
2023/08/02 11:07:12;;;;;;;1.60;0.60;;;;;;;15.37;100.00;97728.84;5023868;28;20539;-81
2023/08/02 11:09:38;;;;;;;0.40;0.20;;;;;;;15.21;100.00;97722.50;5074101;28;20033;-80
2023/08/02 11:12:17;;;;;;;2.20;0.55;;;;;;;15.26;100.00;97737.72;5013484;28;20147;-80
2023/08/02 11:14:49;;;;;;;0.40;0.30;;;;;;;15.26;100.00;97735.06;5049641;28;20095;-82
2023/08/02 11:17:22;;;;;;;1.80;0.52;;;;;;;15.33;100.00;97742.91;5045534;28;20024;-82
2023/08/02 11:19:50;;;;;;;1.40;0.40;;;;;;;15.35;100.00;97746.91;5014374;28;20376;-81
2023/08/02 11:22:17;;;;;;;0.43;0.43;;;;;;;15.37;100.00;97752.00;5037343;28;20041;-82
2023/08/02 11:24:50;;;;;;;0.88;0.50;;;;;;;15.38;100.00;97756.28;5023678;28;20040;-80